Portada
METAR-TAF:

METAR-TAF

Aeroports :

Bandar Kangan, Iran

latitud: 27-49-14N, longitud: 52-21-08E, altitud: 662 m

Observació

L'informe es va fer fa 46 minuts, a les 13:00 UTC
Vent 12 kt del Sud/Sud-Oest
Temperatura 36°C
Humitat 53%
Pressió 998 hPa
Visibilitat: 8000 m

METAR: OIBJ 141300Z 21012KT 8000 NSC 36/25 Q0998

Hora: 18:16 (13:46 UTC)


TAF: manca

Observacions i pronòstics meteorològics de més de 4000 aeroports (METAR i TAF).

Les estacions disponibles són els punts grocs i vermells al mapa.

Posi el ratolí al punt desitjat per veure el nom de l'estació.

Feu clic per veure les observacions i els pronòstics meteorològics.

Per canviar el mapa: feu clic els botons verds amb una creu de color negre per apropar; al botó verd amb un guió per allunyar la imatge; o en les fletxes verdes per a mapes adjacents.


METAR-TAF: